Time;durP1;ratioP1;P1;durP2;ratioP2;P2;SDS_P1;SDS_P2;PMS_P1;PMS_P2;Temp;Humidity;BMP_temperature;BMP_pressure;BME280_temperature;BME280_humidity;BME280_pressure;Samples;Min_cycle;Max_cycle;Signal;HPM_P1;HPM_P2
2023/04/09 00:02:13;;;;;;;67.55;36.80;;;7.90;99.90;;;;;;5023495;28;20025;-68
2023/04/09 00:04:39;;;;;;;67.38;37.15;;;7.90;99.90;;;;;;5016390;28;20042;-71
2023/04/09 00:07:04;;;;;;;73.95;38.83;;;7.90;99.90;;;;;;5018557;28;20092;-70
2023/04/09 00:09:30;;;;;;;81.50;39.70;;;7.90;99.90;;;;;;5050873;28;20409;-69
2023/04/09 00:11:57;;;;;;;67.85;37.30;;;7.80;99.90;;;;;;5015957;28;20030;-68
2023/04/09 00:14:23;;;;;;;68.97;36.78;;;7.80;99.90;;;;;;5018082;28;20029;-70
2023/04/09 00:16:49;;;;;;;63.30;33.70;;;7.90;99.90;;;;;;5019921;28;20517;-69
2023/04/09 00:19:15;;;;;;;70.50;36.65;;;7.90;99.90;;;;;;5016278;28;20069;-68
2023/04/09 00:21:41;;;;;;;79.32;38.85;;;7.90;99.90;;;;;;5017320;28;20057;-68
2023/04/09 00:24:07;;;;;;;70.00;35.55;;;7.80;99.90;;;;;;5018683;28;20139;-69
2023/04/09 00:26:33;;;;;;;71.35;37.90;;;7.80;99.90;;;;;;5018787;28;20524;-68
2023/04/09 00:28:59;;;;;;;71.60;37.80;;;7.70;99.90;;;;;;5018080;28;20057;-67
2023/04/09 00:31:25;;;;;;;76.60;38.30;;;7.80;99.90;;;;;;5019386;28;20048;-69
2023/04/09 00:33:50;;;;;;;69.18;36.03;;;7.80;99.90;;;;;;5019628;28;20468;-69
2023/04/09 00:36:16;;;;;;;68.43;35.55;;;7.80;99.90;;;;;;4999313;28;20029;-69
2023/04/09 00:38:42;;;;;;;71.57;35.95;;;7.80;99.90;;;;;;5023860;28;20026;-71
2023/04/09 00:41:08;;;;;;;85.15;39.42;;;7.90;99.90;;;;;;5018858;28;20040;-70
2023/04/09 00:43:34;;;;;;;77.82;39.30;;;7.90;99.90;;;;;;5019422;28;20061;-67
2023/04/09 00:46:00;;;;;;;83.18;41.05;;;7.90;99.90;;;;;;5016522;28;20021;-67
2023/04/09 00:48:26;;;;;;;75.00;39.42;;;7.80;99.90;;;;;;5024517;28;20123;-68
2023/04/09 00:50:52;;;;;;;77.97;38.60;;;7.90;99.90;;;;;;5021130;28;20097;-69
2023/04/09 00:53:18;;;;;;;92.18;44.55;;;7.90;99.90;;;;;;5020846;28;20105;-68
2023/04/09 00:55:44;;;;;;;88.07;42.80;;;7.90;99.90;;;;;;5020165;28;20372;-68
2023/04/09 00:58:10;;;;;;;87.80;41.33;;;7.90;99.90;;;;;;5019616;28;20026;-70
2023/04/09 01:00:36;;;;;;;85.80;42.10;;;7.90;99.90;;;;;;5021024;28;20032;-68
2023/04/09 01:03:05;;;;;;;83.10;39.30;;;7.90;99.90;;;;;;5019554;28;20069;-67
2023/04/09 01:05:36;;;;;;;79.15;39.42;;;7.90;99.90;;;;;;5020951;28;20299;-69
2023/04/09 01:08:30;;;;;;;77.47;36.88;;;7.80;99.90;;;;;;5014827;28;20242;-67
2023/04/09 01:10:55;;;;;;;77.95;37.22;;;7.90;99.90;;;;;;5041656;28;20034;-68
2023/04/09 01:14:03;;;;;;;80.28;39.38;;;7.90;99.90;;;;;;5035010;28;20041;-73
2023/04/09 01:16:33;;;;;;;84.72;39.33;;;7.80;99.90;;;;;;5030310;28;20038;-68
2023/04/09 01:19:08;;;;;;;75.00;36.92;;;7.80;99.90;;;;;;5027501;28;20026;-68
2023/04/09 01:21:35;;;;;;;82.20;38.47;;;7.80;99.90;;;;;;5023826;28;20026;-69
2023/04/09 01:24:27;;;;;;;80.97;41.47;;;7.90;99.90;;;;;;5020262;28;20462;-71
2023/04/09 01:27:08;;;;;;;72.45;36.38;;;7.90;99.90;;;;;;5052761;28;20026;-68
2023/04/09 01:29:39;;;;;;;82.00;40.35;;;7.90;99.90;;;;;;5018713;28;20032;-68
2023/04/09 01:32:06;;;;;;;82.28;38.42;;;7.90;99.90;;;;;;5017352;28;20036;-68
2023/04/09 01:34:32;;;;;;;76.50;37.30;;;7.90;99.90;;;;;;5020435;28;20274;-69
2023/04/09 01:37:02;;;;;;;77.75;37.90;;;7.90;99.90;;;;;;5022362;28;20107;-72
2023/04/09 01:39:28;;;;;;;68.50;33.55;;;7.90;99.90;;;;;;5019721;28;20026;-70
2023/04/09 01:41:57;;;;;;;71.72;35.03;;;7.90;99.90;;;;;;5018707;28;20053;-71
2023/04/09 01:44:25;;;;;;;69.38;34.40;;;7.90;99.90;;;;;;5022155;28;20107;-69
2023/04/09 01:46:51;;;;;;;65.47;33.03;;;7.90;99.90;;;;;;5023568;28;20034;-69
2023/04/09 01:49:18;;;;;;;70.43;33.92;;;7.90;99.90;;;;;;5046080;28;20021;-70
2023/04/09 01:51:46;;;;;;;75.80;35.00;;;7.90;99.90;;;;;;5020389;28;20498;-67
2023/04/09 01:54:12;;;;;;;69.90;34.92;;;7.80;99.90;;;;;;5020441;28;20104;-69
2023/04/09 01:56:45;;;;;;;67.13;33.40;;;7.80;99.90;;;;;;5003846;28;20112;-67
2023/04/09 01:59:12;;;;;;;65.93;32.53;;;7.90;99.90;;;;;;5016665;28;20350;-68
2023/04/09 02:01:45;;;;;;;66.65;34.22;;;7.90;99.90;;;;;;5021214;28;20723;-68
2023/04/09 02:04:34;;;;;;;67.72;32.05;;;7.90;99.90;;;;;;5016903;28;20026;-69
2023/04/09 02:07:16;;;;;;;59.03;30.75;;;7.90;99.90;;;;;;5017398;28;20036;-67
2023/04/09 02:09:46;;;;;;;72.50;35.13;;;7.90;99.90;;;;;;5022447;28;20037;-71
2023/04/09 02:12:16;;;;;;;63.03;32.40;;;7.90;99.90;;;;;;5021477;28;20119;-69
2023/04/09 02:14:45;;;;;;;67.60;32.67;;;7.90;99.90;;;;;;5015609;28;20171;-73
2023/04/09 02:17:11;;;;;;;65.53;33.17;;;7.80;99.90;;;;;;5018236;28;20310;-70
2023/04/09 02:19:43;;;;;;;72.25;34.47;;;7.80;99.90;;;;;;5023028;28;20493;-70
2023/04/09 02:22:10;;;;;;;64.63;31.83;;;7.80;99.90;;;;;;5020128;28;20113;-67
2023/04/09 02:24:36;;;;;;;61.67;32.10;;;7.90;99.90;;;;;;5017233;28;20508;-68
2023/04/09 02:27:03;;;;;;;64.22;31.80;;;7.80;99.90;;;;;;5019296;28;20017;-69
2023/04/09 02:29:29;;;;;;;64.03;32.50;;;7.90;99.90;;;;;;5001983;28;20447;-67
2023/04/09 02:31:55;;;;;;;60.78;31.48;;;7.80;99.90;;;;;;5021294;28;20076;-70
2023/04/09 02:34:21;;;;;;;55.50;28.98;;;7.90;99.90;;;;;;5019528;28;20021;-67
2023/04/09 02:36:47;;;;;;;68.95;32.67;;;7.90;99.90;;;;;;5017361;28;20017;-73
2023/04/09 02:39:13;;;;;;;67.50;31.80;;;7.90;99.90;;;;;;5020285;28;20020;-69
2023/04/09 02:41:38;;;;;;;56.78;28.08;;;7.90;99.90;;;;;;5018960;28;20080;-69
2023/04/09 02:44:04;;;;;;;61.65;30.25;;;7.90;99.90;;;;;;5016660;28;20060;-70
2023/04/09 02:46:30;;;;;;;60.63;29.60;;;7.90;99.90;;;;;;5016559;28;20088;-68
2023/04/09 02:48:55;;;;;;;54.83;28.17;;;7.90;99.90;;;;;;5016131;28;20056;-67
2023/04/09 02:51:21;;;;;;;57.22;27.52;;;7.90;99.90;;;;;;5017937;28;20100;-69
2023/04/09 02:53:50;;;;;;;55.40;26.80;;;7.90;99.90;;;;;;5017682;28;20375;-70
2023/04/09 02:56:16;;;;;;;49.35;26.15;;;7.90;99.90;;;;;;5018794;28;20033;-67
2023/04/09 02:58:41;;;;;;;53.88;26.58;;;7.90;99.90;;;;;;5015439;28;20421;-67
2023/04/09 03:01:07;;;;;;;53.65;26.08;;;7.90;99.90;;;;;;5017086;28;20060;-67
2023/04/09 03:03:33;;;;;;;52.72;25.05;;;8.00;99.90;;;;;;5019568;28;20080;-67
2023/04/09 03:05:58;;;;;;;49.67;26.10;;;7.90;99.90;;;;;;5015324;28;20040;-67
2023/04/09 03:08:24;;;;;;;53.10;26.23;;;7.90;99.90;;;;;;5018761;28;20108;-67
2023/04/09 03:10:50;;;;;;;52.92;26.13;;;8.00;99.90;;;;;;5002386;28;20036;-69
2023/04/09 03:13:15;;;;;;;51.60;26.75;;;7.90;99.90;;;;;;5018894;28;20695;-69
2023/04/09 03:15:41;;;;;;;50.58;24.77;;;8.00;99.90;;;;;;5017124;28;20021;-69
2023/04/09 03:18:07;;;;;;;59.45;27.20;;;8.00;99.90;;;;;;5000281;28;20025;-68
2023/04/09 03:20:36;;;;;;;55.85;26.20;;;8.00;99.90;;;;;;5019684;28;20021;-70
2023/04/09 03:23:01;;;;;;;51.13;25.48;;;7.90;99.90;;;;;;5016340;28;20033;-68
2023/04/09 03:25:27;;;;;;;53.42;27.60;;;7.90;99.90;;;;;;5001338;28;20033;-68
2023/04/09 03:27:53;;;;;;;59.35;29.65;;;8.00;99.90;;;;;;5018464;28;20034;-71
2023/04/09 03:30:18;;;;;;;62.67;28.35;;;8.00;99.90;;;;;;5016132;28;20032;-71
2023/04/09 03:32:44;;;;;;;59.65;27.73;;;7.90;99.90;;;;;;5017507;28;20025;-68
2023/04/09 03:35:10;;;;;;;63.03;28.85;;;8.00;99.90;;;;;;5016964;28;20033;-68
2023/04/09 03:37:35;;;;;;;56.15;29.13;;;7.90;99.90;;;;;;5016393;28;20605;-69
2023/04/09 03:40:01;;;;;;;63.03;30.27;;;7.90;99.90;;;;;;5017096;28;20026;-69
2023/04/09 03:42:27;;;;;;;64.45;30.17;;;7.90;99.90;;;;;;5017971;28;20029;-68
2023/04/09 03:44:53;;;;;;;70.50;33.45;;;7.90;99.90;;;;;;5018968;28;20351;-70
2023/04/09 03:47:19;;;;;;;71.85;33.55;;;7.90;99.90;;;;;;5017275;28;20033;-70
2023/04/09 03:49:45;;;;;;;64.53;31.33;;;7.90;99.90;;;;;;5019185;28;20044;-71
2023/04/09 03:52:10;;;;;;;66.28;31.98;;;7.80;99.90;;;;;;5016565;28;20047;-68
2023/04/09 03:54:36;;;;;;;76.63;33.92;;;7.90;99.90;;;;;;5015254;28;20104;-66
2023/04/09 03:57:03;;;;;;;73.07;32.45;;;7.80;99.90;;;;;;5049708;28;20107;-68
2023/04/09 03:59:29;;;;;;;74.00;35.33;;;7.90;99.90;;;;;;5015614;28;20422;-67
2023/04/09 04:01:54;;;;;;;70.70;32.90;;;7.90;99.90;;;;;;5034021;28;20033;-68
2023/04/09 04:04:20;;;;;;;71.80;33.58;;;7.90;99.90;;;;;;5017856;28;20128;-67
2023/04/09 04:06:46;;;;;;;73.65;34.13;;;7.90;99.90;;;;;;5017008;28;20029;-70
2023/04/09 04:09:11;;;;;;;78.93;34.95;;;7.90;99.90;;;;;;5015460;28;20129;-67
2023/04/09 04:11:37;;;;;;;82.78;36.53;;;7.90;99.90;;;;;;5017581;28;20515;-69
2023/04/09 04:14:03;;;;;;;86.85;37.20;;;7.90;99.90;;;;;;5020724;28;20083;-67
2023/04/09 04:16:29;;;;;;;85.43;37.83;;;7.80;99.90;;;;;;5019734;28;20117;-67
2023/04/09 04:18:54;;;;;;;109.65;42.20;;;7.90;99.90;;;;;;5019879;28;20079;-69
2023/04/09 04:21:20;;;;;;;105.70;41.17;;;7.80;99.90;;;;;;5020974;28;20032;-69
2023/04/09 04:23:46;;;;;;;59.50;25.98;;;7.70;99.90;;;;;;5019668;28;20028;-67
2023/04/09 04:26:11;;;;;;;102.03;41.72;;;8.10;99.90;;;;;;5020343;28;20451;-70
2023/04/09 04:28:38;;;;;;;105.22;40.72;;;8.10;99.90;;;;;;5019597;28;20573;-69
2023/04/09 04:31:10;;;;;;;97.78;38.88;;;7.80;99.90;;;;;;5021197;28;20056;-69
2023/04/09 04:33:38;;;;;;;99.22;38.90;;;7.60;99.90;;;;;;5019937;28;20038;-71
2023/04/09 04:36:11;;;;;;;102.13;40.42;;;7.60;99.90;;;;;;5019872;28;20040;-68
2023/04/09 04:38:38;;;;;;;103.05;41.03;;;7.60;99.90;;;;;;5018562;28;20553;-69
2023/04/09 04:41:04;;;;;;;95.50;38.72;;;7.60;99.90;;;;;;5022006;28;20397;-70
2023/04/09 04:43:31;;;;;;;95.25;37.92;;;7.60;99.90;;;;;;5015992;28;20079;-69
2023/04/09 04:45:57;;;;;;;91.72;37.45;;;7.60;99.90;;;;;;5020419;28;20092;-67
2023/04/09 04:48:23;;;;;;;87.90;36.63;;;7.70;99.90;;;;;;5002189;28;20444;-67
2023/04/09 04:51:00;;;;;;;83.15;35.58;;;7.70;99.90;;;;;;5020772;28;20026;-68
2023/04/09 04:53:26;;;;;;;77.07;33.92;;;7.70;99.90;;;;;;5020843;28;20052;-67
2023/04/09 04:55:52;;;;;;;91.28;38.15;;;7.60;99.90;;;;;;5019647;28;20557;-71
2023/04/09 04:58:18;;;;;;;80.15;34.70;;;7.60;99.90;;;;;;5018592;28;20037;-70
2023/04/09 05:00:44;;;;;;;82.68;35.45;;;7.60;99.90;;;;;;5020724;28;20021;-67
2023/04/09 05:03:09;;;;;;;82.50;34.67;;;7.60;99.90;;;;;;5018691;28;20376;-70
2023/04/09 05:05:35;;;;;;;76.53;34.50;;;7.70;99.90;;;;;;5021609;28;20045;-68
2023/04/09 05:08:01;;;;;;;79.50;35.38;;;7.70;99.90;;;;;;5001358;28;20029;-68
2023/04/09 05:10:26;;;;;;;80.53;35.83;;;7.80;99.90;;;;;;5020511;28;20026;-69
2023/04/09 05:12:52;;;;;;;80.57;34.45;;;7.80;99.90;;;;;;5019799;28;20040;-69
2023/04/09 05:15:18;;;;;;;71.15;33.50;;;7.80;99.90;;;;;;5017793;28;20025;-69
2023/04/09 05:17:44;;;;;;;79.75;35.72;;;7.80;99.90;;;;;;5019561;28;20026;-72
2023/04/09 05:20:10;;;;;;;77.78;34.45;;;7.70;99.90;;;;;;5019916;28;20105;-68
2023/04/09 05:22:36;;;;;;;74.07;33.30;;;7.70;99.90;;;;;;5017194;28;20033;-67
2023/04/09 05:25:02;;;;;;;75.85;33.85;;;7.80;99.90;;;;;;5019910;28;20037;-69
2023/04/09 05:27:28;;;;;;;73.43;33.63;;;7.80;99.90;;;;;;5018655;28;20536;-67
2023/04/09 05:29:54;;;;;;;85.57;36.95;;;7.80;99.90;;;;;;5020375;28;20025;-68
2023/04/09 05:32:21;;;;;;;74.93;32.97;;;7.70;99.90;;;;;;5023360;28;20140;-70
2023/04/09 05:34:46;;;;;;;79.50;34.30;;;7.60;99.90;;;;;;5021208;28;20029;-68
2023/04/09 05:37:12;;;;;;;86.05;36.08;;;7.60;99.90;;;;;;5020191;28;20394;-70
2023/04/09 05:39:38;;;;;;;74.28;33.67;;;7.70;99.90;;;;;;5017636;28;20401;-67
2023/04/09 05:42:04;;;;;;;74.28;33.65;;;7.70;99.90;;;;;;5018778;28;20022;-67
2023/04/09 05:44:29;;;;;;;74.38;32.88;;;7.80;99.90;;;;;;5018465;28;20030;-66
2023/04/09 05:46:56;;;;;;;73.75;31.92;;;7.80;99.90;;;;;;5051873;28;20056;-67
2023/04/09 05:49:21;;;;;;;73.93;35.42;;;7.80;99.90;;;;;;5016402;28;20555;-69
2023/04/09 05:51:48;;;;;;;70.93;32.58;;;7.90;99.90;;;;;;5020345;28;20033;-69
2023/04/09 05:54:14;;;;;;;76.70;35.90;;;7.90;99.90;;;;;;5019864;28;20022;-67
2023/04/09 05:56:41;;;;;;;78.22;34.30;;;7.90;99.90;;;;;;5017023;28;20041;-70
2023/04/09 05:59:07;;;;;;;79.45;34.70;;;7.90;99.90;;;;;;5020407;28;20017;-69
2023/04/09 06:01:33;;;;;;;70.93;32.75;;;7.80;99.90;;;;;;5017908;28;20422;-67
2023/04/09 06:03:58;;;;;;;75.85;35.08;;;7.80;99.90;;;;;;5018176;28;20112;-70
2023/04/09 06:06:24;;;;;;;72.35;32.63;;;7.80;99.90;;;;;;5015918;28;20022;-71
2023/04/09 06:08:50;;;;;;;77.35;34.45;;;7.90;99.90;;;;;;5018138;28;20033;-68
2023/04/09 06:11:16;;;;;;;74.25;34.63;;;7.90;99.90;;;;;;5020847;28;20556;-69
2023/04/09 06:13:41;;;;;;;73.43;33.00;;;7.80;99.90;;;;;;5017400;28;20129;-68
2023/04/09 06:16:07;;;;;;;77.05;35.33;;;7.70;99.90;;;;;;5018910;28;20489;-68
2023/04/09 06:18:33;;;;;;;75.55;34.97;;;7.60;99.90;;;;;;5016808;28;20108;-68
2023/04/09 06:21:02;;;;;;;85.70;36.10;;;7.60;99.90;;;;;;5018472;28;20064;-67
2023/04/09 06:23:28;;;;;;;78.95;36.10;;;7.60;99.90;;;;;;5016481;28;20516;-70
2023/04/09 06:25:54;;;;;;;84.90;37.30;;;7.60;99.90;;;;;;5019104;28;20033;-70
2023/04/09 06:28:20;;;;;;;84.70;38.80;;;7.70;99.90;;;;;;5019750;28;20092;-68
2023/04/09 06:30:46;;;;;;;88.15;38.72;;;7.70;99.90;;;;;;5017111;28;20034;-70
2023/04/09 06:33:11;;;;;;;82.60;37.45;;;7.70;99.90;;;;;;5016283;28;20084;-72
2023/04/09 06:35:37;;;;;;;79.00;34.92;;;7.80;99.90;;;;;;5016992;28;20026;-69
2023/04/09 06:38:03;;;;;;;78.78;35.88;;;7.80;99.90;;;;;;5021375;28;20409;-70
2023/04/09 06:40:29;;;;;;;81.82;36.72;;;7.90;99.90;;;;;;5022777;28;20025;-68
2023/04/09 06:42:55;;;;;;;79.03;34.33;;;7.80;99.90;;;;;;5024311;28;20033;-68
2023/04/09 06:45:21;;;;;;;81.28;34.95;;;7.90;99.90;;;;;;5020129;28;20040;-68
2023/04/09 06:47:47;;;;;;;77.95;35.50;;;7.80;99.90;;;;;;5018076;28;20029;-68
2023/04/09 06:50:12;;;;;;;72.95;33.88;;;7.80;99.90;;;;;;5017913;28;20061;-69
2023/04/09 06:52:38;;;;;;;74.85;33.15;;;7.90;99.90;;;;;;5002541;28;20064;-69
2023/04/09 06:55:04;;;;;;;78.38;35.00;;;7.90;99.90;;;;;;5017752;28;20490;-67
2023/04/09 06:57:30;;;;;;;77.88;34.38;;;7.90;99.90;;;;;;5017752;28;20090;-68
2023/04/09 06:59:56;;;;;;;73.63;33.58;;;8.00;99.90;;;;;;5018568;28;20642;-68
2023/04/09 07:02:22;;;;;;;70.50;32.53;;;8.00;99.90;;;;;;5010646;28;20048;-68
2023/04/09 07:04:47;;;;;;;73.90;32.88;;;8.00;99.90;;;;;;5016441;28;20076;-67
2023/04/09 07:07:13;;;;;;;78.10;34.38;;;8.00;99.90;;;;;;5017395;28;20037;-67
2023/04/09 07:09:39;;;;;;;74.97;37.00;;;8.00;99.90;;;;;;5020535;28;20076;-70
2023/04/09 07:12:04;;;;;;;75.90;33.53;;;7.90;99.90;;;;;;5015083;28;20033;-66
2023/04/09 07:14:32;;;;;;;73.70;31.90;;;8.00;99.90;;;;;;5011663;28;20127;-67
2023/04/09 07:16:57;;;;;;;70.18;32.05;;;8.00;99.90;;;;;;5046167;28;20052;-67
2023/04/09 07:19:23;;;;;;;68.43;31.20;;;8.00;99.90;;;;;;4999401;28;20022;-68
2023/04/09 07:21:49;;;;;;;69.90;30.42;;;8.10;99.90;;;;;;5019091;28;20061;-71
2023/04/09 07:24:15;;;;;;;70.78;32.15;;;8.00;99.90;;;;;;5018032;28;20490;-71
2023/04/09 07:26:41;;;;;;;70.35;30.60;;;8.00;99.90;;;;;;5016692;28;20044;-68
2023/04/09 07:29:07;;;;;;;67.70;31.15;;;8.10;99.90;;;;;;5016100;28;20033;-68
2023/04/09 07:31:32;;;;;;;67.03;31.55;;;8.20;99.90;;;;;;5018523;28;20040;-68
2023/04/09 07:33:58;;;;;;;63.70;29.75;;;8.40;99.90;;;;;;5018635;28;20138;-68
2023/04/09 07:36:25;;;;;;;62.25;29.42;;;8.40;99.90;;;;;;5016514;28;20045;-68
2023/04/09 07:38:51;;;;;;;57.47;28.75;;;8.30;99.90;;;;;;5014402;28;20022;-68
2023/04/09 07:41:16;;;;;;;60.80;28.70;;;8.30;99.90;;;;;;5018572;28;20401;-68
2023/04/09 07:43:43;;;;;;;59.60;27.77;;;8.40;99.90;;;;;;5019400;28;20025;-68
2023/04/09 07:46:08;;;;;;;67.68;29.58;;;8.40;99.90;;;;;;5018135;28;20423;-68
2023/04/09 07:48:34;;;;;;;73.05;33.13;;;8.40;99.90;;;;;;5018478;28;20109;-72
2023/04/09 07:51:00;;;;;;;67.22;31.08;;;8.50;99.90;;;;;;5019578;28;20022;-71
2023/04/09 07:53:29;;;;;;;69.82;32.70;;;9.10;99.90;;;;;;5016512;28;20105;-70
2023/04/09 07:55:55;;;;;;;69.45;32.15;;;8.80;99.90;;;;;;5015623;28;20101;-67
2023/04/09 07:58:21;;;;;;;66.95;31.67;;;8.70;99.90;;;;;;5016121;28;20110;-71
2023/04/09 08:00:47;;;;;;;62.97;30.45;;;8.80;99.90;;;;;;5016907;28;20029;-69
2023/04/09 08:03:13;;;;;;;68.22;31.65;;;8.80;99.90;;;;;;5018959;28;20436;-67
2023/04/09 08:05:39;;;;;;;62.00;29.52;;;8.90;99.90;;;;;;5017489;28;20034;-70
2023/04/09 08:08:05;;;;;;;62.63;30.98;;;8.90;99.90;;;;;;5018072;28;20614;-67
2023/04/09 08:10:30;;;;;;;54.05;29.85;;;8.80;99.90;;;;;;5016960;28;20040;-67
2023/04/09 08:12:56;;;;;;;61.40;30.02;;;8.80;99.90;;;;;;5018206;28;20344;-69
2023/04/09 08:15:22;;;;;;;57.50;29.05;;;8.80;99.90;;;;;;5015630;28;20030;-66
2023/04/09 08:17:48;;;;;;;55.72;29.33;;;8.70;99.90;;;;;;5016824;28;20404;-70
2023/04/09 08:20:15;;;;;;;49.42;26.15;;;8.70;99.90;;;;;;5020674;28;20029;-67
2023/04/09 08:22:41;;;;;;;54.20;28.65;;;8.70;99.90;;;;;;5018517;28;20463;-70
2023/04/09 08:25:07;;;;;;;57.60;30.08;;;8.70;99.90;;;;;;5019820;28;20033;-67
2023/04/09 08:27:36;;;;;;;57.95;27.52;;;8.60;99.90;;;;;;5014410;28;20104;-70
2023/04/09 08:30:02;;;;;;;58.90;29.25;;;8.70;99.90;;;;;;4999197;28;20064;-67
2023/04/09 08:32:28;;;;;;;54.55;27.30;;;8.70;99.90;;;;;;5016906;28;20030;-69
2023/04/09 08:34:54;;;;;;;51.95;27.88;;;8.80;99.90;;;;;;5018474;28;20022;-70
2023/04/09 08:37:20;;;;;;;58.17;27.83;;;8.70;99.90;;;;;;5019569;28;20552;-69
2023/04/09 08:39:45;;;;;;;53.90;27.17;;;8.70;99.90;;;;;;5016428;28;20026;-69
2023/04/09 08:42:13;;;;;;;49.83;25.35;;;8.80;99.90;;;;;;5017783;28;20199;-68
2023/04/09 08:44:39;;;;;;;48.38;24.33;;;8.70;99.90;;;;;;5015746;28;20038;-67
2023/04/09 08:47:10;;;;;;;55.83;28.02;;;8.80;99.90;;;;;;5015840;28;20026;-69
2023/04/09 08:49:38;;;;;;;53.35;26.27;;;8.80;99.90;;;;;;5020650;28;20505;-71
2023/04/09 08:52:06;;;;;;;47.60;25.98;;;8.90;99.90;;;;;;5019393;28;20040;-69
2023/04/09 08:54:31;;;;;;;43.67;24.30;;;8.90;99.90;;;;;;5017332;28;20026;-68
2023/04/09 08:56:57;;;;;;;42.08;24.58;;;9.00;99.90;;;;;;5001069;28;20358;-70
2023/04/09 08:59:23;;;;;;;40.20;22.23;;;9.10;99.90;;;;;;5019823;28;20161;-73
2023/04/09 09:02:05;;;;;;;40.53;21.40;;;9.20;99.90;;;;;;5019969;28;20018;-69
2023/04/09 09:04:44;;;;;;;38.80;20.80;;;9.30;99.90;;;;;;5017112;28;20026;-70
2023/04/09 09:07:10;;;;;;;42.92;23.42;;;10.00;99.90;;;;;;5003955;28;20125;-67
2023/04/09 09:09:59;;;;;;;40.92;21.40;;;9.70;99.90;;;;;;5022528;28;20093;-70
2023/04/09 09:12:39;;;;;;;41.70;21.75;;;9.60;99.90;;;;;;5017460;28;20040;-67
2023/04/09 09:15:26;;;;;;;45.25;23.00;;;9.50;99.90;;;;;;5019677;28;20022;-67
2023/04/09 09:17:56;;;;;;;38.60;21.08;;;9.50;99.90;;;;;;5018818;28;20367;-68
2023/04/09 09:20:23;;;;;;;42.00;22.00;;;9.50;99.90;;;;;;5019182;28;20026;-72
2023/04/09 09:22:51;;;;;;;40.45;23.90;;;9.50;99.90;;;;;;5020608;28;20029;-69
2023/04/09 09:25:17;;;;;;;44.47;24.40;;;9.40;99.90;;;;;;5021617;28;20081;-67
2023/04/09 09:27:42;;;;;;;43.17;24.73;;;9.40;99.90;;;;;;5022269;28;20088;-70
2023/04/09 09:30:19;;;;;;;46.80;23.25;;;9.50;99.90;;;;;;5020016;28;20109;-68
2023/04/09 09:32:45;;;;;;;83.43;57.08;;;9.50;99.90;;;;;;5001917;28;20383;-74
2023/04/09 09:35:10;;;;;;;42.05;22.50;;;9.40;99.90;;;;;;5020009;28;20303;-70
2023/04/09 09:37:36;;;;;;;40.67;23.48;;;9.40;99.90;;;;;;5019013;28;20498;-67
2023/04/09 09:40:03;;;;;;;35.80;21.95;;;9.30;99.90;;;;;;5018913;28;20022;-69
2023/04/09 09:42:29;;;;;;;39.70;23.52;;;9.30;99.90;;;;;;5006192;28;20049;-69
2023/04/09 09:44:55;;;;;;;38.78;23.17;;;9.30;99.90;;;;;;5024252;28;20022;-69
2023/04/09 09:47:21;;;;;;;38.75;22.27;;;9.30;99.90;;;;;;5003175;28;20036;-69
2023/04/09 09:49:51;;;;;;;40.53;22.75;;;9.30;99.90;;;;;;5019279;28;20554;-70
2023/04/09 09:52:25;;;;;;;38.40;23.23;;;9.30;99.90;;;;;;5019788;28;20033;-70
2023/04/09 09:54:53;;;;;;;39.38;22.40;;;9.40;99.90;;;;;;5019664;28;20026;-71
2023/04/09 09:57:22;;;;;;;38.30;22.35;;;9.40;99.90;;;;;;5018455;28;20105;-70
2023/04/09 10:00:10;;;;;;;40.38;23.33;;;9.50;99.90;;;;;;5020282;28;20025;-69
2023/04/09 10:02:46;;;;;;;52.03;28.98;;;9.50;99.90;;;;;;5019900;28;20108;-68
2023/04/09 10:05:12;;;;;;;47.00;29.25;;;9.50;99.90;;;;;;5020658;28;20025;-68
2023/04/09 10:07:39;;;;;;;47.47;27.67;;;9.50;99.90;;;;;;5017290;28;20037;-68
2023/04/09 10:10:07;;;;;;;54.38;32.22;;;9.60;99.90;;;;;;5018110;28;20034;-68
2023/04/09 10:12:33;;;;;;;53.53;31.67;;;9.70;99.90;;;;;;5014985;28;20029;-68
2023/04/09 10:15:03;;;;;;;47.03;28.17;;;9.70;99.90;;;;;;5017080;28;20037;-68
2023/04/09 10:17:30;;;;;;;49.70;29.10;;;9.80;99.90;;;;;;5019320;28;20577;-68
2023/04/09 10:20:21;;;;;;;44.50;27.10;;;9.90;99.90;;;;;;5020136;28;20489;-68
2023/04/09 10:22:49;;;;;;;45.55;26.40;;;10.00;99.90;;;;;;5017124;28;20084;-70
2023/04/09 10:25:15;;;;;;;38.65;23.50;;;10.00;99.90;;;;;;5012548;28;20026;-68
2023/04/09 10:27:45;;;;;;;39.35;23.92;;;10.20;99.90;;;;;;5018297;28;20025;-70
2023/04/09 10:30:34;;;;;;;46.22;28.50;;;10.30;99.90;;;;;;5021265;28;20053;-67
2023/04/09 10:33:14;;;;;;;46.17;26.40;;;10.40;99.90;;;;;;5016861;28;20036;-68
2023/04/09 10:35:40;;;;;;;44.47;25.45;;;10.50;99.90;;;;;;5016822;28;20022;-68
2023/04/09 10:38:09;;;;;;;41.90;24.65;;;10.50;99.90;;;;;;5017167;28;20478;-70
2023/04/09 10:40:41;;;;;;;39.67;24.92;;;10.60;99.90;;;;;;5001621;28;20033;-67
2023/04/09 10:43:08;;;;;;;44.65;26.98;;;10.80;99.90;;;;;;5015646;28;20053;-67
2023/04/09 10:45:41;;;;;;;47.35;27.48;;;10.90;99.90;;;;;;5020690;28;20018;-66
2023/04/09 10:48:13;;;;;;;45.55;26.40;;;10.90;99.90;;;;;;5032787;28;20029;-71
2023/04/09 10:50:43;;;;;;;45.97;20.85;;;11.40;99.90;;;;;;5017940;28;20028;-69
2023/04/09 10:53:24;;;;;;;53.33;34.45;;;11.60;99.90;;;;;;5016749;28;20174;-67
2023/04/09 10:55:52;;;;;;;56.13;34.28;;;12.30;99.90;;;;;;4998141;28;20025;-69
2023/04/09 10:58:18;;;;;;;48.58;30.95;;;11.70;99.90;;;;;;5016191;28;20026;-68
2023/04/09 11:00:45;;;;;;;53.28;32.60;;;11.80;99.90;;;;;;5019333;28;20370;-70
2023/04/09 11:03:31;;;;;;;52.90;35.83;;;11.80;99.90;;;;;;5018344;28;20477;-67
2023/04/09 11:05:59;;;;;;;55.83;34.92;;;11.70;99.90;;;;;;5015555;28;20291;-67
2023/04/09 11:08:29;;;;;;;59.83;37.60;;;11.70;99.90;;;;;;5015516;28;20025;-69
2023/04/09 11:10:57;;;;;;;53.13;35.42;;;11.90;99.90;;;;;;5002229;28;20104;-72
2023/04/09 11:13:23;;;;;;;55.78;36.75;;;12.00;99.90;;;;;;5016446;28;20042;-69
2023/04/09 11:15:49;;;;;;;76.60;47.58;;;12.30;99.90;;;;;;5017304;28;20371;-68
2023/04/09 11:18:29;;;;;;;74.75;46.65;;;12.20;99.90;;;;;;5019835;28;20043;-72
2023/04/09 11:21:00;;;;;;;63.53;38.60;;;12.60;99.90;;;;;;5017426;28;20088;-70
2023/04/09 11:23:27;;;;;;;53.60;34.67;;;13.40;99.90;;;;;;5016510;28;20381;-68
2023/04/09 11:25:54;;;;;;;46.67;31.48;;;13.90;99.90;;;;;;5016879;28;20035;-71
2023/04/09 11:28:20;;;;;;;66.50;43.03;;;14.70;99.90;;;;;;5017710;28;20069;-69
2023/04/09 11:30:46;;;;;;;78.80;49.50;;;15.10;99.90;;;;;;5015362;28;20056;-69
2023/04/09 11:33:13;;;;;;;94.55;57.75;;;15.30;99.90;;;;;;5017374;28;20025;-70
2023/04/09 11:35:38;;;;;;;94.05;60.25;;;15.60;99.90;;;;;;5016727;28;20071;-68
2023/04/09 11:38:09;;;;;;;106.72;71.53;;;15.90;99.90;;;;;;5015358;28;20501;-68
2023/04/09 11:40:35;;;;;;;79.72;53.33;;;16.20;99.80;;;;;;5016460;28;20064;-69
2023/04/09 11:43:02;;;;;;;69.32;45.30;;;15.70;99.70;;;;;;5018477;28;20030;-70
2023/04/09 11:45:30;;;;;;;83.50;55.15;;;15.70;99.90;;;;;;5014043;28;20026;-69
2023/04/09 11:47:56;;;;;;;67.57;47.38;;;15.70;98.80;;;;;;5016033;28;20026;-68
2023/04/09 11:50:22;;;;;;;84.28;58.20;;;15.80;99.90;;;;;;5015883;28;20037;-68
2023/04/09 11:52:49;;;;;;;77.38;51.58;;;16.10;99.40;;;;;;5020952;28;20220;-66
2023/04/09 11:55:26;;;;;;;62.42;44.63;;;15.50;99.70;;;;;;5024353;28;20049;-70
2023/04/09 11:57:59;;;;;;;60.53;43.03;;;15.80;99.00;;;;;;5030125;28;20026;-73
2023/04/09 12:00:26;;;;;;;47.85;36.17;;;15.20;99.40;;;;;;5028406;28;20037;-67
2023/04/09 12:03:02;;;;;;;46.10;32.85;;;15.20;99.90;;;;;;5018543;28;20026;-69
2023/04/09 12:05:30;;;;;;;52.25;38.60;;;15.40;99.90;;;;;;5012931;28;20075;-67
2023/04/09 12:08:01;;;;;;;58.55;41.53;;;15.10;99.50;;;;;;5017047;28;20021;-67
2023/04/09 12:10:28;;;;;;;53.85;36.95;;;15.20;99.90;;;;;;5016737;28;20112;-67
2023/04/09 12:12:54;;;;;;;39.97;28.73;;;15.20;99.90;;;;;;5017229;28;20519;-67
2023/04/09 12:15:23;;;;;;;35.00;24.50;;;15.10;99.90;;;;;;5012614;28;20049;-70
2023/04/09 12:17:58;;;;;;;38.65;25.60;;;15.10;99.90;;;;;;5013693;28;20040;-69
2023/04/09 12:20:42;;;;;;;44.25;29.30;;;15.70;99.90;;;;;;5015412;28;20414;-68
2023/04/09 12:23:09;;;;;;;39.42;25.77;;;15.80;98.90;;;;;;5014620;28;20048;-70
2023/04/09 12:25:37;;;;;;;39.13;27.15;;;16.00;98.10;;;;;;5014636;28;20023;-68
2023/04/09 12:28:05;;;;;;;47.80;30.83;;;16.00;99.10;;;;;;5015496;28;20037;-74
2023/04/09 12:30:31;;;;;;;45.28;32.70;;;16.40;97.20;;;;;;5015009;28;20611;-70
2023/04/09 12:32:58;;;;;;;46.88;30.70;;;16.10;97.40;;;;;;5014364;28;20030;-70
2023/04/09 12:35:24;;;;;;;42.03;27.92;;;16.40;97.60;;;;;;5002244;28;20136;-70
2023/04/09 12:37:50;;;;;;;36.33;25.20;;;16.70;95.60;;;;;;5018666;28;20053;-69
2023/04/09 12:40:16;;;;;;;36.78;26.02;;;17.00;95.50;;;;;;5019534;28;20506;-69